EFW22D EGKK-LEZL
Flight info
| Callsign | EFW22D |
|---|---|
| Flight time | N/A |
| Altitude | 33000 |
| Route | NOVMA L620 SAM M195 MARUK N621 LELNA DCT NOVAN/N0438F350 DCT DELOG DCT VADOX DCT SNR/N0430F330 DCT TITAN DCT RATAS DCT NEA DCT NONTU DCT ORBIS DCT DISKO DCT TLD DCT DOPEN DCT MONTO DCT MOLIN DCT HIJ |
| Aircraft | A320/M-SDE3FGHIRWY/LB1 |
Departure
| Time | N/A |
|---|---|
| Airport | London Gatwick Airport (EGKK) |
Arrival
| Time | 2026-03-24 17:19 |
|---|---|
| Airport | Seville Airport (LEZL) |
| Time | Latitude | Longitude | Altitude | Speed | Heading |
|---|---|---|---|---|---|
| 2026-03-24 16:10 | 43.02587 | -3.96484 | 33177 ft | 470 kts | 184° |
| 2026-03-24 16:10 | 42.96197 | -3.97338 | 33167 ft | 471 kts | 185° |
| 2026-03-24 16:11 | 42.89705 | -3.98352 | 33171 ft | 472 kts | 185° |
| 2026-03-24 16:11 | 42.83167 | -3.99362 | 33169 ft | 472 kts | 185° |
| 2026-03-24 16:12 | 42.76659 | -4.00307 | 33173 ft | 473 kts | 185° |
| 2026-03-24 16:12 | 42.70092 | -4.01248 | 33173 ft | 474 kts | 185° |
| 2026-03-24 16:13 | 42.68297 | -4.01505 | 33174 ft | 474 kts | 184° |
| 2026-03-24 16:13 | 42.66522 | -4.02051 | 32950 ft | 476 kts | 204° |
| 2026-03-24 16:13 | 42.63770 | -4.04524 | 32156 ft | 477 kts | 227° |
| 2026-03-24 16:13 | 42.62011 | -4.07952 | 31470 ft | 472 kts | 249° |
| 2026-03-24 16:14 | 42.61286 | -4.12249 | 30755 ft | 463 kts | 273° |
| 2026-03-24 16:14 | 42.61851 | -4.16487 | 30077 ft | 453 kts | 297° |
| 2026-03-24 16:14 | 42.63581 | -4.19982 | 29365 ft | 444 kts | 320° |
| 2026-03-24 16:14 | 42.66133 | -4.22159 | 28729 ft | 436 kts | 343° |
| 2026-03-24 16:15 | 42.69105 | -4.22714 | 28118 ft | 432 kts | 7° |
| 2026-03-24 16:15 | 42.71970 | -4.21535 | 27548 ft | 433 kts | 30° |
| 2026-03-24 16:15 | 42.74209 | -4.18853 | 27023 ft | 439 kts | 53° |
| 2026-03-24 16:15 | 42.75476 | -4.15054 | 26530 ft | 447 kts | 76° |
| 2026-03-24 16:16 | 42.75511 | -4.10822 | 26059 ft | 458 kts | 99° |
| 2026-03-24 16:16 | 42.74288 | -4.06807 | 25614 ft | 469 kts | 122° |
| 2026-03-24 16:16 | 42.71962 | -4.03662 | 25183 ft | 479 kts | 145° |
| 2026-03-24 16:16 | 42.68879 | -4.01914 | 24774 ft | 486 kts | 168° |
| 2026-03-24 16:17 | 42.65498 | -4.01853 | 24390 ft | 490 kts | 191° |
| 2026-03-24 16:17 | 42.62317 | -4.03509 | 24027 ft | 491 kts | 213° |
| 2026-03-24 16:17 | 42.59846 | -4.06589 | 23675 ft | 488 kts | 236° |
| 2026-03-24 16:17 | 42.58423 | -4.10525 | 23303 ft | 482 kts | 257° |
| 2026-03-24 16:18 | 42.58164 | -4.15005 | 22947 ft | 475 kts | 280° |
| 2026-03-24 16:18 | 42.59167 | -4.19209 | 22606 ft | 467 kts | 302° |
| 2026-03-24 16:18 | 42.61229 | -4.22475 | 22290 ft | 460 kts | 324° |
| 2026-03-24 16:18 | 42.64058 | -4.24381 | 21998 ft | 455 kts | 347° |
| 2026-03-24 16:19 | 42.67205 | -4.24600 | 21722 ft | 453 kts | 10° |
| 2026-03-24 16:19 | 42.70112 | -4.23119 | 21486 ft | 454 kts | 32° |
| 2026-03-24 16:19 | 42.72390 | -4.20141 | 21264 ft | 458 kts | 54° |
| 2026-03-24 16:19 | 42.73634 | -4.16147 | 21057 ft | 464 kts | 77° |
| 2026-03-24 16:20 | 42.73635 | -4.11761 | 20860 ft | 470 kts | 99° |
| 2026-03-24 16:20 | 42.72372 | -4.07639 | 20675 ft | 476 kts | 122° |
| 2026-03-24 16:20 | 42.70071 | -4.04489 | 20523 ft | 481 kts | 144° |
| 2026-03-24 16:20 | 42.66988 | -4.02688 | 20373 ft | 485 kts | 167° |
| 2026-03-24 16:21 | 42.63606 | -4.02578 | 20228 ft | 486 kts | 190° |
| 2026-03-24 16:21 | 42.60463 | -4.04167 | 20104 ft | 485 kts | 212° |
| 2026-03-24 16:21 | 42.58002 | -4.07198 | 20019 ft | 481 kts | 235° |
| 2026-03-24 16:21 | 42.56561 | -4.11239 | 19948 ft | 475 kts | 258° |
| 2026-03-24 16:22 | 42.56362 | -4.15664 | 19888 ft | 468 kts | 281° |
| 2026-03-24 16:22 | 42.57408 | -4.19755 | 19861 ft | 461 kts | 303° |
| 2026-03-24 16:22 | 42.59531 | -4.22945 | 19850 ft | 454 kts | 326° |
| 2026-03-24 16:22 | 42.62213 | -4.24655 | 19873 ft | 449 kts | 348° |
| 2026-03-24 16:23 | 42.65308 | -4.24814 | 19901 ft | 447 kts | 11° |
| 2026-03-24 16:23 | 42.68303 | -4.23684 | 19905 ft | 447 kts | 18° |
| 2026-03-24 16:23 | 42.71115 | -4.21879 | 20053 ft | 450 kts | 33° |
| 2026-03-24 16:23 | 42.73457 | -4.19033 | 20742 ft | 453 kts | 49° |
| 2026-03-24 16:24 | 42.75073 | -4.15731 | 21536 ft | 457 kts | 62° |
| 2026-03-24 16:24 | 42.76018 | -4.11674 | 22793 ft | 455 kts | 77° |
| 2026-03-24 16:24 | 42.76163 | -4.07297 | 23308 ft | 470 kts | 94° |
| 2026-03-24 16:24 | 42.76150 | -4.07125 | 23334 ft | 470 kts | 94° |
| 2026-03-24 16:25 | 42.75886 | -4.04594 | 39583 ft | 455 kts | 92° |
| 2026-03-24 16:25 | 42.75835 | -4.04083 | 35583 ft | 0 kts | 96° |
| 2026-03-24 16:25 | 42.75700 | -4.00770 | 36765 ft | 366 kts | 93° |
| 2026-03-24 16:25 | 42.75361 | -3.98565 | 37335 ft | 358 kts | 103° |
| 2026-03-24 16:26 | 42.74860 | -3.96657 | 31851 ft | 361 kts | 111° |
| 2026-03-24 16:26 | 42.73338 | -3.94013 | 32003 ft | 354 kts | 137° |
| 2026-03-24 16:26 | 42.71165 | -3.92575 | 31968 ft | 347 kts | 162° |
| 2026-03-24 16:26 | 42.68755 | -3.92334 | 31855 ft | 349 kts | 181° |
| 2026-03-24 16:27 | 42.66395 | -3.92993 | 31750 ft | 345 kts | 196° |
| 2026-03-24 16:27 | 42.64100 | -3.93955 | 31637 ft | 352 kts | 197° |
| 2026-03-24 16:27 | 42.61859 | -3.95562 | 31347 ft | 380 kts | 203° |
| 2026-03-24 16:27 | 42.59404 | -3.96700 | 31116 ft | 398 kts | 196° |
| 2026-03-24 16:28 | 42.56854 | -3.98405 | 31207 ft | 416 kts | 210° |
| 2026-03-24 16:28 | 42.54400 | -4.00390 | 32250 ft | 402 kts | 203° |
| 2026-03-24 16:28 | 42.51784 | -4.01503 | 32803 ft | 399 kts | 182° |
| 2026-03-24 16:28 | 42.49006 | -4.01413 | 33091 ft | 401 kts | 168° |
| 2026-03-24 16:29 | 42.46184 | -4.00971 | 33185 ft | 417 kts | 168° |
| 2026-03-24 16:29 | 42.43222 | -4.00492 | 33194 ft | 435 kts | 168° |
| 2026-03-24 16:29 | 42.40117 | -4.00375 | 33196 ft | 459 kts | 183° |
| 2026-03-24 16:29 | 42.36910 | -4.01176 | 33205 ft | 477 kts | 188° |
| 2026-03-24 16:30 | 42.33695 | -4.02078 | 33193 ft | 485 kts | 188° |
| 2026-03-24 16:30 | 42.27034 | -4.03996 | 33194 ft | 489 kts | 189° |
| 2026-03-24 16:31 | 42.20393 | -4.05920 | 33188 ft | 489 kts | 188° |
| 2026-03-24 16:31 | 42.13716 | -4.07819 | 33197 ft | 489 kts | 188° |
| 2026-03-24 16:32 | 42.07075 | -4.09689 | 33201 ft | 490 kts | 188° |
| 2026-03-24 16:32 | 42.00402 | -4.11193 | 33200 ft | 486 kts | 180° |
| 2026-03-24 16:33 | 41.93802 | -4.11950 | 33210 ft | 486 kts | 180° |
| 2026-03-24 16:33 | 41.87077 | -4.12699 | 33210 ft | 485 kts | 180° |
| 2026-03-24 16:34 | 41.80338 | -4.13462 | 33212 ft | 486 kts | 180° |
| 2026-03-24 16:34 | 41.73581 | -4.14240 | 33211 ft | 486 kts | 180° |
| 2026-03-24 16:35 | 41.66864 | -4.15008 | 33216 ft | 486 kts | 180° |
| 2026-03-24 16:35 | 41.60120 | -4.15766 | 33214 ft | 486 kts | 180° |
| 2026-03-24 16:36 | 41.53648 | -4.16496 | 33209 ft | 486 kts | 180° |
| 2026-03-24 16:36 | 41.46896 | -4.17252 | 33209 ft | 485 kts | 180° |
| 2026-03-24 16:37 | 41.41368 | -4.17860 | 33220 ft | 485 kts | 180° |
| 2026-03-24 16:37 | 41.34474 | -4.18643 | 33219 ft | 484 kts | 180° |
| 2026-03-24 16:38 | 41.27889 | -4.19397 | 33227 ft | 484 kts | 180° |
| 2026-03-24 16:38 | 41.21203 | -4.20141 | 33223 ft | 483 kts | 180° |
| 2026-03-24 16:39 | 41.14490 | -4.20883 | 33226 ft | 482 kts | 180° |
| 2026-03-24 16:39 | 41.07834 | -4.21623 | 33223 ft | 482 kts | 180° |
| 2026-03-24 16:40 | 41.01134 | -4.22376 | 33227 ft | 481 kts | 180° |
| 2026-03-24 16:40 | 40.94503 | -4.23117 | 33225 ft | 480 kts | 181° |
| 2026-03-24 16:41 | 40.87826 | -4.23845 | 33236 ft | 479 kts | 181° |
| 2026-03-24 16:41 | 40.81199 | -4.24573 | 33226 ft | 478 kts | 181° |
| 2026-03-24 16:42 | 40.74599 | -4.25299 | 33235 ft | 477 kts | 181° |
| 2026-03-24 16:42 | 40.69097 | -4.25903 | 33223 ft | 476 kts | 181° |
| 2026-03-24 16:43 | 40.58243 | -4.27086 | 33225 ft | 474 kts | 181° |
| 2026-03-24 16:43 | 40.52729 | -4.27699 | 33224 ft | 473 kts | 182° |
| 2026-03-24 16:44 | 40.46198 | -4.28414 | 33231 ft | 472 kts | 182° |
| 2026-03-24 16:44 | 40.39688 | -4.29127 | 33227 ft | 471 kts | 182° |
| 2026-03-24 16:45 | 40.33159 | -4.29835 | 33231 ft | 470 kts | 182° |
| 2026-03-24 16:45 | 40.26670 | -4.30534 | 33228 ft | 468 kts | 182° |
| 2026-03-24 16:46 | 40.20175 | -4.31240 | 33224 ft | 467 kts | 183° |
| 2026-03-24 16:46 | 40.13719 | -4.31938 | 33218 ft | 467 kts | 183° |
| 2026-03-24 16:47 | 40.07242 | -4.32630 | 33229 ft | 466 kts | 183° |
| 2026-03-24 16:47 | 40.00938 | -4.33303 | 33219 ft | 465 kts | 183° |
| 2026-03-24 16:48 | 39.94498 | -4.34099 | 33223 ft | 465 kts | 186° |
| 2026-03-24 16:48 | 39.88139 | -4.35429 | 33217 ft | 464 kts | 189° |
| 2026-03-24 16:49 | 39.81806 | -4.36964 | 33220 ft | 463 kts | 190° |
| 2026-03-24 16:49 | 39.75475 | -4.38406 | 33215 ft | 462 kts | 189° |
| 2026-03-24 16:50 | 39.69112 | -4.39750 | 33218 ft | 461 kts | 189° |
| 2026-03-24 16:50 | 39.62804 | -4.41068 | 33215 ft | 461 kts | 189° |
| 2026-03-24 16:51 | 39.56463 | -4.42417 | 33216 ft | 460 kts | 189° |
| 2026-03-24 16:52 | 39.47001 | -4.44434 | 33216 ft | 459 kts | 189° |
| 2026-03-24 16:52 | 39.40708 | -4.45760 | 33215 ft | 459 kts | 189° |
| 2026-03-24 16:53 | 39.34510 | -4.47067 | 33216 ft | 458 kts | 189° |
| 2026-03-24 16:53 | 39.28209 | -4.48395 | 33212 ft | 458 kts | 189° |
| 2026-03-24 16:54 | 39.22041 | -4.50393 | 33213 ft | 457 kts | 202° |
| 2026-03-24 16:54 | 39.16575 | -4.54471 | 33209 ft | 456 kts | 214° |
| 2026-03-24 16:55 | 39.11285 | -4.59007 | 33209 ft | 456 kts | 214° |
| 2026-03-24 16:55 | 39.06011 | -4.63487 | 33200 ft | 456 kts | 214° |
| 2026-03-24 16:56 | 39.00684 | -4.68002 | 33204 ft | 456 kts | 213° |
| 2026-03-24 16:56 | 38.95410 | -4.72459 | 33196 ft | 456 kts | 213° |
| 2026-03-24 16:57 | 38.90115 | -4.76940 | 33204 ft | 456 kts | 213° |
| 2026-03-24 16:57 | 38.84843 | -4.81396 | 33201 ft | 456 kts | 213° |
| 2026-03-24 16:58 | 38.79632 | -4.85796 | 33191 ft | 455 kts | 213° |
| 2026-03-24 16:58 | 38.74351 | -4.90243 | 33187 ft | 455 kts | 213° |
| 2026-03-24 16:59 | 38.69056 | -4.94696 | 33209 ft | 455 kts | 213° |
| 2026-03-24 16:59 | 38.63757 | -4.99146 | 33198 ft | 455 kts | 213° |
| 2026-03-24 17:00 | 38.58497 | -5.03561 | 33193 ft | 455 kts | 213° |
| 2026-03-24 17:00 | 38.53202 | -5.07985 | 33185 ft | 455 kts | 213° |
| 2026-03-24 17:01 | 38.48173 | -5.12879 | 33193 ft | 455 kts | 221° |
| 2026-03-24 17:01 | 38.43390 | -5.18169 | 33187 ft | 455 kts | 220° |
| 2026-03-24 17:01 | 38.40991 | -5.20816 | 33011 ft | 456 kts | 220° |
| 2026-03-24 17:02 | 38.38587 | -5.23466 | 32310 ft | 457 kts | 220° |
| 2026-03-24 17:02 | 38.36185 | -5.26113 | 31517 ft | 457 kts | 220° |
| 2026-03-24 17:02 | 38.33797 | -5.28740 | 30755 ft | 455 kts | 220° |
| 2026-03-24 17:02 | 38.31506 | -5.31257 | 29983 ft | 452 kts | 220° |
| 2026-03-24 17:03 | 38.29127 | -5.33869 | 29112 ft | 449 kts | 220° |
| 2026-03-24 17:03 | 38.26757 | -5.36468 | 28267 ft | 446 kts | 220° |
| 2026-03-24 17:03 | 38.24447 | -5.39000 | 27468 ft | 443 kts | 220° |
| 2026-03-24 17:03 | 38.22125 | -5.41545 | 26665 ft | 440 kts | 220° |
| 2026-03-24 17:04 | 38.19792 | -5.44097 | 25886 ft | 436 kts | 220° |
| 2026-03-24 17:04 | 38.17486 | -5.46607 | 25127 ft | 433 kts | 220° |
| 2026-03-24 17:04 | 38.15206 | -5.49087 | 24392 ft | 430 kts | 220° |
| 2026-03-24 17:04 | 38.12969 | -5.51522 | 23673 ft | 427 kts | 220° |
| 2026-03-24 17:05 | 38.10874 | -5.53803 | 22884 ft | 425 kts | 220° |
| 2026-03-24 17:05 | 38.08635 | -5.56241 | 22055 ft | 422 kts | 220° |
| 2026-03-24 17:05 | 38.06426 | -5.58648 | 21267 ft | 420 kts | 220° |
| 2026-03-24 17:05 | 38.04211 | -5.61059 | 20489 ft | 418 kts | 220° |
| 2026-03-24 17:06 | 38.01997 | -5.63466 | 19712 ft | 416 kts | 220° |
| 2026-03-24 17:06 | 37.99799 | -5.65855 | 18969 ft | 415 kts | 220° |
| 2026-03-24 17:06 | 37.97638 | -5.68204 | 18220 ft | 413 kts | 220° |
| 2026-03-24 17:06 | 37.95460 | -5.70571 | 17393 ft | 410 kts | 220° |
| 2026-03-24 17:07 | 37.93298 | -5.72916 | 16588 ft | 407 kts | 220° |
| 2026-03-24 17:07 | 37.91150 | -5.75242 | 15805 ft | 403 kts | 220° |
| 2026-03-24 17:07 | 37.89027 | -5.77538 | 15037 ft | 399 kts | 220° |
| 2026-03-24 17:07 | 37.87034 | -5.79690 | 14329 ft | 394 kts | 220° |
| 2026-03-24 17:08 | 37.84947 | -5.81940 | 13554 ft | 388 kts | 219° |
| 2026-03-24 17:08 | 37.82897 | -5.84147 | 12737 ft | 382 kts | 220° |
| 2026-03-24 17:08 | 37.80909 | -5.86285 | 11955 ft | 377 kts | 220° |
| 2026-03-24 17:08 | 37.78920 | -5.88427 | 11177 ft | 371 kts | 220° |
| 2026-03-24 17:09 | 37.76973 | -5.90523 | 10439 ft | 366 kts | 220° |
| 2026-03-24 17:09 | 37.75049 | -5.92596 | 9795 ft | 358 kts | 220° |
| 2026-03-24 17:09 | 37.73177 | -5.94609 | 9279 ft | 348 kts | 220° |
| 2026-03-24 17:09 | 37.71373 | -5.96543 | 8765 ft | 339 kts | 220° |
| 2026-03-24 17:10 | 37.69570 | -5.98472 | 8249 ft | 333 kts | 220° |
| 2026-03-24 17:10 | 37.67839 | -6.00325 | 7752 ft | 327 kts | 220° |
| 2026-03-24 17:10 | 37.66133 | -6.02211 | 7256 ft | 322 kts | 223° |
| 2026-03-24 17:10 | 37.64539 | -6.04178 | 6770 ft | 319 kts | 225° |
| 2026-03-24 17:11 | 37.62906 | -6.06077 | 6257 ft | 316 kts | 220° |
| 2026-03-24 17:11 | 37.61214 | -6.07772 | 5764 ft | 313 kts | 216° |
| 2026-03-24 17:11 | 37.59419 | -6.09321 | 5258 ft | 310 kts | 212° |
| 2026-03-24 17:11 | 37.57567 | -6.10686 | 4754 ft | 307 kts | 207° |
| 2026-03-24 17:12 | 37.55641 | -6.11845 | 4245 ft | 305 kts | 202° |
| 2026-03-24 17:12 | 37.53672 | -6.12832 | 3732 ft | 302 kts | 199° |
| 2026-03-24 17:12 | 37.51709 | -6.13654 | 3249 ft | 299 kts | 195° |
| 2026-03-24 17:12 | 37.49704 | -6.14324 | 2879 ft | 293 kts | 192° |
| 2026-03-24 17:13 | 37.47735 | -6.14817 | 2630 ft | 283 kts | 188° |
| 2026-03-24 17:13 | 37.45827 | -6.15136 | 2376 ft | 276 kts | 184° |
| 2026-03-24 17:13 | 37.43951 | -6.15259 | 2131 ft | 265 kts | 173° |
| 2026-03-24 17:13 | 37.42391 | -6.14448 | 2004 ft | 228 kts | 134° |
| 2026-03-24 17:14 | 37.41756 | -6.12829 | 2023 ft | 193 kts | 97° |
| 2026-03-24 17:14 | 37.41704 | -6.11271 | 2016 ft | 167 kts | 90° |
| 2026-03-24 17:14 | 37.41705 | -6.09835 | 2008 ft | 152 kts | 90° |
| 2026-03-24 17:14 | 37.41709 | -6.08627 | 2003 ft | 128 kts | 89° |
| 2026-03-24 17:15 | 37.41714 | -6.07538 | 2008 ft | 122 kts | 90° |
| 2026-03-24 17:15 | 37.41719 | -6.06490 | 2007 ft | 119 kts | 88° |
| 2026-03-24 17:15 | 37.41723 | -6.05449 | 2015 ft | 118 kts | 89° |
| 2026-03-24 17:15 | 37.41728 | -6.04421 | 2010 ft | 116 kts | 88° |
| 2026-03-24 17:16 | 37.41733 | -6.03409 | 1995 ft | 118 kts | 89° |
| 2026-03-24 17:16 | 37.41738 | -6.02388 | 1920 ft | 117 kts | 89° |
| 2026-03-24 17:16 | 37.41743 | -6.01358 | 1804 ft | 117 kts | 90° |
| 2026-03-24 17:16 | 37.41748 | -6.00342 | 1663 ft | 117 kts | 89° |
| 2026-03-24 17:17 | 37.41752 | -5.99343 | 1514 ft | 116 kts | 89° |
| 2026-03-24 17:17 | 37.41757 | -5.98328 | 1370 ft | 116 kts | 89° |
| 2026-03-24 17:17 | 37.41761 | -5.97316 | 1197 ft | 116 kts | 88° |
| 2026-03-24 17:17 | 37.41766 | -5.96305 | 1003 ft | 114 kts | 89° |
| 2026-03-24 17:18 | 37.41770 | -5.95322 | 827 ft | 113 kts | 89° |
| 2026-03-24 17:18 | 37.41774 | -5.94327 | 653 ft | 113 kts | 87° |
| 2026-03-24 17:18 | 37.41778 | -5.93337 | 473 ft | 113 kts | 88° |
| 2026-03-24 17:18 | 37.41783 | -5.92347 | 319 ft | 112 kts | 89° |
| 2026-03-24 17:19 | 37.41799 | -5.91373 | 162 ft | 111 kts | 85° |
| 2026-03-24 17:19 | 37.41811 | -5.90465 | 100 ft | 84 kts | 108° |
| 2026-03-24 17:19 | 37.41797 | -5.89839 | 103 ft | 63 kts | 90° |
| 2026-03-24 17:19 | 37.41777 | -5.89361 | 105 ft | 34 kts | 91° |
| 2026-03-24 17:20 | 37.41790 | -5.89268 | 103 ft | 5 kts | 41° |
| 2026-03-24 17:20 | 37.41839 | -5.89258 | 104 ft | 10 kts | 352° |
| 2026-03-24 17:20 | 37.41917 | -5.89310 | 102 ft | 16 kts | 330° |
| 2026-03-24 17:20 | 37.42029 | -5.89414 | 100 ft | 23 kts | 314° |
| 2026-03-24 17:21 | 37.42154 | -5.89572 | 100 ft | 27 kts | 315° |
| 2026-03-24 17:21 | 37.42300 | -5.89766 | 98 ft | 33 kts | 316° |
| 2026-03-24 17:21 | 37.42348 | -5.89811 | 97 ft | 12 kts | 324° |
| 2026-03-24 17:21 | 37.42371 | -5.89831 | 97 ft | 0 kts | 333° |